Aeroporto :
LOGIN :

Iscrizione | Disclaimer

   EN    FR    IT 

 










Sommario :    VFR   VFR Marginale   IFR   IFR Intensivo   IFR Molto Intensivo
Visibilità : 
Base nubi : 
>= 8 km
>= 3000ft
5 / 8 km
1000 / 3000 ft
1500m / 5 km
500 / 1000 ft
800 / 1500m
200 / 500 ft
< 800m
< 200 ft
Simboli :   Temporali  Nebbia  Neve Forte  Precipitazioni Forti  Vento > 20 kt
SIGMETs :   Varie  Temporali  Ghiacco  Turbolenza  Onda orograficha  Ceneri Vulcaniche






- Altitudine del aeroporto : 19 ft
- Codice IATA : VAA


EFVA - Vaasa

ULTIMO METAR :
  • 270950Z AUTO VRB02KT 9999 -SHRA FEW005 //////CB 11/10 Q1021 RESHRA

METARs OBSOLETI :
  • 270920Z AUTO 33003KT 290V010 5000 SHRA FEW009 //////CB 11/09 Q1022
  • 270850Z AUTO 32005KT 260V350 9999 -SHRA BKN010 OVC050 //////CB 11/09 Q1022
  • 270820Z AUTO 33007KT 9999 -RA NSC 11/09 Q1022
  • 270750Z AUTO 34012KT CAVOK 11/08 Q1022
  • 270720Z AUTO 33010KT CAVOK 12/06 Q1021

TAF AMD TAF EFVA
Valido dal 27 a 09 ore il 28 a 09 ore UTC


270922Z 2709/2809 34006KT 5000 SHRA BKN010 SCT040CB
BECMG 2709/2711 9999 NSW FEW025



MetMap, La meteo Aeronautica in un colpo d'occhio ! - Copyright ORBIFLY Dicembre 2007 - Disclaimer

ORBIFLY MET'MAP TEAM :

Programmazione e sviluppo : Alexandra Zaïnal
Concezione : Baudouin d'Aumeries
Aiuto per la programmazione : Marc-Olivier Méhu
Supporto tecnico e logistico : Manuel Goepfert
Aiuto per la traduzione : Arnaldo La Scala

Contatto : metmap@orbifly.com




FONTI E CREDITI :

   NOAA